Time;durP1;ratioP1;P1;durP2;ratioP2;P2;SDS_P1;SDS_P2;PMS_P1;PMS_P2;Temp;Humidity;BMP_temperature;BMP_pressure;BME280_temperature;BME280_humidity;BME280_pressure;Samples;Min_cycle;Max_cycle;Signal;HPM_P1;HPM_P2
2023/02/24 00:00:31;;;;;;;18.93;4.03;;;;;;;4.79;95.59;100560.28;5007897;28;20202;-70
2023/02/24 00:02:58;;;;;;;19.70;4.57;;;;;;;4.78;95.54;100555.94;5005160;28;20234;-70
2023/02/24 00:05:26;;;;;;;11.80;3.37;;;;;;;4.78;95.94;100549.78;5006361;28;20671;-70
2023/02/24 00:07:52;;;;;;;16.20;4.10;;;;;;;4.79;95.95;100544.47;5006935;28;20211;-70
2023/02/24 00:10:20;;;;;;;16.80;3.50;;;;;;;4.80;96.03;100540.91;5006541;28;20207;-70
2023/02/24 00:12:46;;;;;;;18.83;3.03;;;;;;;4.79;95.96;100541.81;5007057;28;20699;-70
2023/02/24 00:15:14;;;;;;;15.50;3.30;;;;;;;4.78;96.21;100544.50;5005325;28;20272;-70
2023/02/24 00:17:40;;;;;;;22.43;4.17;;;;;;;4.77;96.18;100543.66;5001964;28;20231;-69
2023/02/24 00:20:10;;;;;;;17.93;3.73;;;;;;;4.76;96.42;100536.66;5009972;28;20301;-70
2023/02/24 00:22:39;;;;;;;23.00;4.17;;;;;;;4.75;96.11;100539.34;5005202;28;20677;-70
2023/02/24 00:25:06;;;;;;;14.53;3.90;;;;;;;4.71;96.13;100530.72;5007269;28;20213;-70
2023/02/24 00:27:32;;;;;;;16.43;4.10;;;;;;;4.67;96.39;100534.38;5006308;28;20215;-70
2023/02/24 00:30:00;;;;;;;19.23;3.90;;;;;;;4.65;96.13;100528.34;5008223;28;20210;-69
2023/02/24 00:32:27;;;;;;;19.80;4.43;;;;;;;4.64;96.66;100525.75;5002752;28;20314;-70
2023/02/24 00:34:55;;;;;;;17.40;3.67;;;;;;;4.63;96.55;100519.63;5003503;28;20206;-69
2023/02/24 00:37:22;;;;;;;19.20;3.33;;;;;;;4.62;96.78;100520.53;5005918;28;20231;-70
2023/02/24 00:39:56;;;;;;;21.07;4.07;;;;;;;4.61;97.01;100510.91;5005935;28;20558;-69
2023/02/24 00:42:22;;;;;;;16.87;3.60;;;;;;;4.62;97.33;100502.09;5000929;28;20230;-70
2023/02/24 00:44:52;;;;;;;14.97;3.80;;;;;;;4.61;96.54;100500.38;5003067;28;20228;-71
2023/02/24 00:47:19;;;;;;;15.53;3.50;;;;;;;4.58;96.88;100495.22;5007523;28;20556;-70
2023/02/24 00:49:47;;;;;;;12.43;3.10;;;;;;;4.56;96.87;100497.06;5004892;28;20411;-71
2023/02/24 00:52:16;;;;;;;13.70;3.73;;;;;;;4.54;96.83;100502.38;5008355;28;20227;-71
2023/02/24 00:54:43;;;;;;;16.17;3.60;;;;;;;4.51;96.53;100499.00;5013305;28;20209;-71
2023/02/24 00:57:13;;;;;;;16.23;3.37;;;;;;;4.49;96.16;100495.56;5005525;28;20214;-71
2023/02/24 00:59:39;;;;;;;17.17;3.43;;;;;;;4.45;96.03;100492.22;5013893;28;20198;-69
2023/02/24 01:02:06;;;;;;;18.47;3.00;;;;;;;4.43;96.13;100485.28;5010005;28;20227;-69
2023/02/24 01:04:33;;;;;;;14.90;2.50;;;;;;;4.40;95.97;100495.97;5004508;28;20318;-70
2023/02/24 01:06:59;;;;;;;11.80;2.40;;;;;;;4.37;96.19;100485.53;5008073;28;20203;-69
2023/02/24 01:09:28;;;;;;;15.97;3.13;;;;;;;4.34;95.76;100480.38;5004430;28;20786;-69
2023/02/24 01:14:40;;;;;;;14.90;3.10;;;;;;;4.29;95.63;100479.72;5005282;28;20226;-69
2023/02/24 01:17:08;;;;;;;16.93;3.43;;;;;;;4.25;95.61;100475.50;5005969;28;20218;-69
2023/02/24 01:19:35;;;;;;;14.93;2.40;;;;;;;4.24;95.38;100479.03;5011265;28;20206;-69
2023/02/24 01:22:03;;;;;;;16.60;2.40;;;;;;;4.21;95.15;100473.88;5009253;28;20218;-69
2023/02/24 01:24:32;;;;;;;14.13;2.80;;;;;;;4.21;95.31;100471.25;5010560;28;20302;-69
2023/02/24 01:26:59;;;;;;;17.87;2.90;;;;;;;4.16;95.30;100463.53;5004598;28;20654;-69
2023/02/24 01:29:26;;;;;;;12.17;2.10;;;;;;;4.13;94.80;100467.13;5000517;28;20200;-69
2023/02/24 01:31:56;;;;;;;19.03;3.40;;;;;;;4.13;95.26;100466.28;5001884;28;20274;-69
2023/02/24 01:34:23;;;;;;;18.27;2.87;;;;;;;4.12;94.71;100459.31;5003293;28;20203;-69
2023/02/24 01:36:50;;;;;;;14.00;2.97;;;;;;;4.10;94.51;100458.53;5006596;28;20203;-69
2023/02/24 01:39:17;;;;;;;10.00;2.87;;;;;;;4.08;94.45;100457.72;5005557;28;20683;-69
2023/02/24 01:41:45;;;;;;;10.47;2.93;;;;;;;4.07;94.34;100454.22;5003309;28;20241;-70
2023/02/24 01:44:45;;;;;;;14.27;2.37;;;;;;;4.06;94.13;100447.22;5006585;28;20318;-69
2023/02/24 01:47:15;;;;;;;14.10;2.17;;;;;;;4.05;93.83;100442.88;5002746;28;20423;-69
2023/02/24 01:49:45;;;;;;;12.37;1.90;;;;;;;4.03;94.03;100439.44;5007772;28;20214;-69
2023/02/24 01:52:16;;;;;;;15.20;3.50;;;;;;;4.02;93.90;100432.47;5009827;28;20227;-69
2023/02/24 01:54:45;;;;;;;13.57;3.23;;;;;;;4.02;93.39;100439.50;5009989;28;20213;-69
2023/02/24 01:57:18;;;;;;;22.87;3.77;;;;;;;4.03;93.84;100442.09;5011990;28;20305;-69
2023/02/24 01:59:47;;;;;;;14.67;2.60;;;;;;;4.03;93.68;100434.19;5011967;28;20207;-69
2023/02/24 02:02:16;;;;;;;13.23;2.17;;;;;;;4.03;93.29;100430.69;5011527;28;20243;-69
2023/02/24 02:04:48;;;;;;;16.83;2.30;;;;;;;4.03;93.48;100428.03;5011983;28;20714;-69
2023/02/24 02:07:17;;;;;;;16.03;2.70;;;;;;;4.04;93.31;100428.00;5009926;28;20704;-69
2023/02/24 02:09:45;;;;;;;12.33;3.17;;;;;;;4.04;93.24;100420.09;5014877;28;20198;-69
2023/02/24 02:12:12;;;;;;;19.00;3.63;;;;;;;4.05;93.35;100416.53;5007762;28;20277;-69
2023/02/24 02:14:42;;;;;;;12.47;2.50;;;;;;;4.05;93.09;100411.25;5004639;28;20600;-69
2023/02/24 02:17:17;;;;;;;9.37;2.50;;;;;;;4.05;92.81;100406.00;5006944;28;20235;-69
2023/02/24 02:20:14;;;;;;;16.93;2.70;;;;;;;4.04;93.19;100398.16;5002620;28;20214;-69
2023/02/24 02:23:06;;;;;;;11.70;2.10;;;;;;;4.02;93.29;100395.56;5009219;28;20741;-69
2023/02/24 02:25:48;;;;;;;15.97;2.60;;;;;;;4.03;93.19;100393.78;4998345;28;20294;-69
2023/02/24 02:28:44;;;;;;;13.03;3.27;;;;;;;4.03;92.80;100388.53;5008431;28;20214;-69
2023/02/24 02:31:34;;;;;;;18.23;2.93;;;;;;;4.03;92.67;100388.53;5003076;28;20265;-69
2023/02/24 02:34:19;;;;;;;10.33;2.43;;;;;;;3.99;92.86;100382.50;5003264;28;20199;-69
2023/02/24 02:36:57;;;;;;;17.50;3.13;;;;;;;4.00;92.92;100383.38;5010739;28;20207;-69
2023/02/24 02:39:33;;;;;;;8.27;2.33;;;;;;;3.99;92.45;100373.75;5009489;28;20264;-69
2023/02/24 02:42:13;;;;;;;10.23;2.50;;;;;;;3.98;92.62;100370.25;5011672;28;20237;-69
2023/02/24 02:44:46;;;;;;;9.10;2.60;;;;;;;3.96;92.59;100369.44;5007708;28;20242;-69
2023/02/24 02:47:21;;;;;;;16.07;2.97;;;;;;;3.97;93.04;100363.25;5008494;28;20666;-69
2023/02/24 02:49:53;;;;;;;17.37;3.20;;;;;;;3.95;92.61;100354.56;5010219;28;20202;-69
2023/02/24 02:52:27;;;;;;;11.43;2.43;;;;;;;3.94;92.29;100352.84;5013231;28;20628;-69
2023/02/24 02:54:58;;;;;;;10.10;2.27;;;;;;;3.95;93.12;100351.94;5004614;28;20580;-69
2023/02/24 02:57:29;;;;;;;12.07;3.17;;;;;;;3.95;92.60;100351.06;5008872;28;20206;-69
2023/02/24 03:00:00;;;;;;;13.60;2.67;;;;;;;3.95;92.43;100351.06;5000621;28;20227;-69
2023/02/24 03:02:37;;;;;;;10.70;2.50;;;;;;;3.96;92.83;100350.16;5005175;28;20247;-69
2023/02/24 03:05:08;;;;;;;13.70;3.00;;;;;;;3.95;92.83;100341.38;5000711;28;20230;-69
2023/02/24 03:07:41;;;;;;;10.80;2.40;;;;;;;3.97;92.88;100338.69;5007042;28;20226;-69
2023/02/24 03:10:16;;;;;;;20.07;3.17;;;;;;;3.98;93.06;100337.78;5002511;28;20206;-70
2023/02/24 03:12:47;;;;;;;11.27;2.20;;;;;;;3.98;93.19;100330.72;5006638;28;20597;-70
2023/02/24 03:15:15;;;;;;;14.27;2.57;;;;;;;3.96;92.83;100326.44;5010997;28;20210;-70
2023/02/24 03:17:44;;;;;;;8.40;2.17;;;;;;;3.95;93.02;100328.22;5008148;28;20238;-69
2023/02/24 03:20:20;;;;;;;7.30;2.30;;;;;;;3.93;92.80;100321.31;5002406;28;21393;-70
2023/02/24 03:22:50;;;;;;;9.37;2.03;;;;;;;3.93;92.63;100318.69;5001936;28;20229;-70
2023/02/24 03:25:23;;;;;;;8.77;2.27;;;;;;;3.92;92.06;100314.34;5005026;28;20220;-70
2023/02/24 03:27:55;;;;;;;13.13;2.83;;;;;;;3.89;92.55;100310.06;5008042;28;20211;-69
2023/02/24 03:30:26;;;;;;;12.33;2.67;;;;;;;3.87;92.43;100309.25;5003691;28;20773;-69
2023/02/24 03:32:57;;;;;;;8.53;2.33;;;;;;;3.86;92.43;100304.91;5006542;28;20627;-69
2023/02/24 03:35:27;;;;;;;13.67;2.40;;;;;;;3.85;92.27;100297.91;5000264;28;20207;-70
2023/02/24 03:37:56;;;;;;;10.30;2.90;;;;;;;3.84;92.06;100290.94;5003172;28;20701;-70
2023/02/24 03:40:27;;;;;;;7.67;2.43;;;;;;;3.81;91.29;100283.16;5003248;28;20203;-69
2023/02/24 03:43:03;;;;;;;9.87;2.57;;;;;;;3.78;91.33;100278.88;5008978;28;20895;-69
2023/02/24 03:45:33;;;;;;;8.23;1.90;;;;;;;3.78;91.37;100284.13;5002979;28;20313;-72
2023/02/24 03:48:02;;;;;;;7.37;2.00;;;;;;;3.79;90.82;100287.63;5005536;28;20203;-69
2023/02/24 03:50:31;;;;;;;7.77;1.70;;;;;;;3.79;90.87;100291.13;5008254;28;20234;-72
2023/02/24 03:53:03;;;;;;;8.33;1.57;;;;;;;3.76;90.41;100274.59;5000393;28;20215;-70
2023/02/24 03:55:41;;;;;;;10.43;2.37;;;;;;;3.72;90.15;100279.13;5006110;28;20203;-70
2023/02/24 03:58:16;;;;;;;9.80;1.97;;;;;;;3.70;89.42;100275.72;5006499;28;20675;-70
2023/02/24 04:00:52;;;;;;;10.30;1.60;;;;;;;3.68;89.01;100284.59;5004730;28;20981;-70
2023/02/24 04:03:30;;;;;;;5.13;1.23;;;;;;;3.66;88.68;100270.63;5010607;28;20619;-70
2023/02/24 04:06:09;;;;;;;5.40;1.90;;;;;;;3.65;88.29;100264.50;5006211;28;20230;-70
2023/02/24 04:08:42;;;;;;;3.73;1.00;;;;;;;3.64;88.03;100268.03;5003699;28;20907;-70
2023/02/24 04:11:15;;;;;;;6.80;2.40;;;;;;;3.65;87.46;100266.28;5005951;28;20281;-70
2023/02/24 04:13:46;;;;;;;7.60;1.57;;;;;;;3.65;87.52;100269.75;5010987;28;20211;-70
2023/02/24 04:16:17;;;;;;;6.77;1.60;;;;;;;3.66;87.82;100270.63;5008820;28;20294;-70
2023/02/24 04:18:47;;;;;;;5.57;1.20;;;;;;;3.62;86.69;100259.34;5008039;28;20211;-70
2023/02/24 04:21:18;;;;;;;6.37;1.20;;;;;;;3.63;86.26;100263.69;5004889;28;20240;-70
2023/02/24 04:23:45;;;;;;;6.43;1.73;;;;;;;3.61;85.69;100256.78;5011317;28;20222;-70
2023/02/24 04:26:15;;;;;;;7.83;1.30;;;;;;;3.56;85.28;100254.34;5008719;28;20254;-70
2023/02/24 04:28:42;;;;;;;9.87;1.53;;;;;;;3.56;85.73;100245.59;5000736;28;20207;-70
2023/02/24 04:31:16;;;;;;;3.17;1.27;;;;;;;3.53;84.86;100257.09;5003459;28;20207;-70
2023/02/24 04:33:43;;;;;;;7.53;1.30;;;;;;;3.53;84.68;100245.72;5003976;28;20202;-70
2023/02/24 04:36:11;;;;;;;5.70;1.33;;;;;;;3.49;84.72;100243.22;5002100;28;20207;-70
2023/02/24 04:38:40;;;;;;;7.63;1.27;;;;;;;3.48;84.33;100244.13;5002059;28;20204;-70
2023/02/24 04:41:07;;;;;;;4.43;1.17;;;;;;;3.46;83.94;100245.97;5001346;28;20810;-70
2023/02/24 04:43:34;;;;;;;8.43;1.40;;;;;;;3.46;84.11;100242.47;5007403;28;20215;-70
2023/02/24 04:46:06;;;;;;;7.93;1.50;;;;;;;3.46;83.80;100245.09;5001494;28;20317;-70
2023/02/24 04:48:32;;;;;;;7.87;1.80;;;;;;;3.45;83.38;100244.25;5005332;28;20203;-70
2023/02/24 04:51:01;;;;;;;9.77;1.97;;;;;;;3.46;83.60;100245.97;5005707;28;20222;-70
2023/02/24 04:53:28;;;;;;;6.87;1.27;;;;;;;3.47;83.69;100236.28;5006900;28;20225;-70
2023/02/24 04:55:56;;;;;;;5.13;0.90;;;;;;;3.45;82.51;100236.34;5008067;28;20203;-70
2023/02/24 04:58:26;;;;;;;5.33;1.10;;;;;;;3.44;82.83;100236.41;5005984;28;20226;-70
2023/02/24 05:00:54;;;;;;;5.93;1.57;;;;;;;3.40;82.25;100238.28;5003745;28;21597;-70
2023/02/24 05:03:27;;;;;;;4.50;1.10;;;;;;;3.36;82.59;100226.22;5003392;28;20737;-70
2023/02/24 05:05:55;;;;;;;8.70;1.50;;;;;;;3.32;81.24;100229.00;5002878;28;20234;-70
2023/02/24 05:08:23;;;;;;;5.53;0.97;;;;;;;3.26;81.11;100222.22;5007328;28;20293;-70
2023/02/24 05:10:50;;;;;;;4.90;1.30;;;;;;;3.24;80.45;100213.53;4995993;28;20663;-70
2023/02/24 05:13:20;;;;;;;6.23;1.30;;;;;;;3.25;80.81;100217.00;4997786;28;20389;-70
2023/02/24 05:15:48;;;;;;;8.10;1.70;;;;;;;3.23;80.46;100206.53;4998504;28;20203;-69
2023/02/24 05:18:17;;;;;;;4.03;0.93;;;;;;;3.21;80.11;100203.16;5006607;28;20208;-70
2023/02/24 05:23:33;;;;;;;5.67;1.10;;;;;;;3.20;79.46;100198.78;4996928;28;20215;-69
2023/02/24 05:26:00;;;;;;;3.93;1.07;;;;;;;3.20;79.87;100190.03;4998548;28;20254;-70
2023/02/24 05:28:30;;;;;;;5.13;1.17;;;;;;;3.18;79.76;100194.50;5003039;28;20297;-70
2023/02/24 05:31:04;;;;;;;6.20;1.13;;;;;;;3.14;79.30;100183.25;4998813;28;20203;-70
2023/02/24 05:33:31;;;;;;;9.63;1.47;;;;;;;3.12;79.15;100180.66;5005425;28;20239;-70
2023/02/24 05:36:03;;;;;;;6.43;1.07;;;;;;;3.13;78.19;100173.63;4998412;28;20202;-70
2023/02/24 05:38:30;;;;;;;5.43;1.13;;;;;;;3.11;78.25;100167.56;5002095;28;20286;-70
2023/02/24 05:41:06;;;;;;;5.47;1.37;;;;;;;3.09;78.21;100164.16;4999805;28;20294;-70
2023/02/24 05:43:34;;;;;;;3.30;0.90;;;;;;;3.08;77.88;100158.03;5058271;22;20290;-80
2023/02/24 05:46:03;;;;;;;10.43;1.73;;;;;;;3.08;77.42;100154.53;5057522;28;20762;-80
2023/02/24 05:48:33;;;;;;;6.73;1.07;;;;;;;3.04;76.96;100151.19;5057435;28;20279;-79
2023/02/24 05:51:00;;;;;;;4.60;1.23;;;;;;;3.05;77.37;100149.41;5052243;28;20572;-80
2023/02/24 05:53:27;;;;;;;6.40;1.20;;;;;;;3.04;76.55;100150.34;5058613;28;20225;-80
2023/02/24 05:55:54;;;;;;;5.73;1.87;;;;;;;3.03;76.77;100140.75;5053322;28;20231;-80
2023/02/24 05:58:27;;;;;;;3.30;1.17;;;;;;;3.03;76.55;100138.09;5052488;28;20209;-80
2023/02/24 06:00:57;;;;;;;7.73;2.03;;;;;;;3.02;76.14;100133.75;5054105;28;20216;-80
2023/02/24 06:03:29;;;;;;;3.90;1.30;;;;;;;2.96;75.71;100128.75;5053678;28;20613;-80
2023/02/24 06:05:58;;;;;;;5.23;1.80;;;;;;;2.92;75.52;100128.00;5052626;28;20225;-80
2023/02/24 06:08:25;;;;;;;2.93;1.23;;;;;;;2.91;75.42;100122.81;5057486;28;20252;-80
2023/02/24 06:10:52;;;;;;;3.63;1.00;;;;;;;2.89;75.05;100122.00;5051940;28;20203;-80
2023/02/24 06:13:19;;;;;;;4.50;1.17;;;;;;;2.88;75.22;100112.41;5056878;28;20226;-80
2023/02/24 06:15:49;;;;;;;5.27;2.27;;;;;;;2.91;75.19;100117.53;5054056;28;20197;-80
2023/02/24 06:18:17;;;;;;;6.17;1.40;;;;;;;2.92;74.96;100108.72;5055866;28;20205;-79
2023/02/24 06:20:49;;;;;;;5.80;1.80;;;;;;;2.91;75.14;100110.50;5052903;28;20335;-80
2023/02/24 06:23:16;;;;;;;8.67;1.40;;;;;;;2.94;75.09;100102.50;5050953;28;20270;-79
2023/02/24 06:25:43;;;;;;;6.20;1.17;;;;;;;2.95;76.01;100098.94;5053170;28;20279;-79
2023/02/24 06:28:10;;;;;;;5.10;1.17;;;;;;;2.97;76.07;100096.25;5056294;28;21461;-79
2023/02/24 06:30:37;;;;;;;4.47;1.33;;;;;;;3.00;76.42;100091.72;5058583;28;20202;-79
2023/02/24 06:33:04;;;;;;;7.77;2.40;;;;;;;3.03;76.45;100088.13;5052350;28;20263;-79
2023/02/24 06:35:32;;;;;;;4.13;1.27;;;;;;;3.02;76.54;100087.28;5056724;28;20201;-78
2023/02/24 06:37:59;;;;;;;6.13;1.23;;;;;;;3.02;77.04;100076.75;5056507;28;20583;-78
2023/02/24 06:40:25;;;;;;;4.27;0.90;;;;;;;2.99;76.47;100068.97;5049345;28;20212;-78
2023/02/24 06:42:53;;;;;;;4.60;1.13;;;;;;;3.03;76.55;100069.72;5055205;28;20763;-78
2023/02/24 06:45:21;;;;;;;6.27;1.00;;;;;;;3.00;76.59;100059.31;5052250;28;20230;-78
2023/02/24 06:47:48;;;;;;;6.60;2.03;;;;;;;3.00;76.81;100059.31;5059247;28;20599;-79
2023/02/24 06:50:17;;;;;;;7.93;2.03;;;;;;;3.00;76.77;100049.66;5049072;28;20206;-78
2023/02/24 06:52:46;;;;;;;5.27;1.07;;;;;;;3.00;76.25;100054.91;5048467;28;20226;-79
2023/02/24 06:55:24;;;;;;;5.80;1.57;;;;;;;3.01;76.57;100055.75;5049503;28;20206;-78
2023/02/24 06:58:02;;;;;;;4.90;1.07;;;;;;;2.98;76.15;100058.50;5057734;28;20206;-78
2023/02/24 07:00:37;;;;;;;3.90;1.00;;;;;;;2.98;76.34;100048.00;5055565;28;20278;-78
2023/02/24 07:03:16;;;;;;;3.23;0.93;;;;;;;2.98;76.48;100048.84;5057135;28;20229;-79
2023/02/24 07:05:49;;;;;;;7.17;1.77;;;;;;;2.97;75.82;100043.66;5055819;28;20729;-79
2023/02/24 07:08:19;;;;;;;4.73;0.90;;;;;;;2.94;75.63;100041.16;5059138;28;20201;-78
2023/02/24 07:10:52;;;;;;;6.43;1.40;;;;;;;2.93;76.10;100042.06;5052432;28;20205;-79
2023/02/24 07:13:18;;;;;;;4.03;1.03;;;;;;;2.94;76.22;100036.75;5061681;28;20233;-79
2023/02/24 07:15:48;;;;;;;4.80;1.00;;;;;;;2.93;76.01;100037.66;5057053;28;20248;-78
2023/02/24 07:18:15;;;;;;;4.03;0.80;;;;;;;2.94;76.00;100028.84;5054314;28;20210;-79
2023/02/24 07:20:45;;;;;;;4.30;0.80;;;;;;;2.95;75.89;100029.69;5050458;28;20261;-79
2023/02/24 07:23:11;;;;;;;3.07;0.67;;;;;;;2.92;75.17;100019.31;5057870;28;20218;-78
2023/02/24 07:25:40;;;;;;;5.37;1.30;;;;;;;2.94;75.05;100018.31;5055830;28;20225;-79
2023/02/24 07:28:06;;;;;;;3.83;0.80;;;;;;;2.97;75.15;100017.34;5059903;28;20273;-78
2023/02/24 07:30:33;;;;;;;2.50;0.77;;;;;;;2.95;74.70;100012.16;5051375;28;20205;-78
2023/02/24 07:33:02;;;;;;;6.30;0.80;;;;;;;2.96;74.67;100005.97;5055142;28;20233;-78
2023/02/24 07:35:28;;;;;;;3.90;0.77;;;;;;;2.97;73.91;100009.47;5058128;28;20210;-78
2023/02/24 07:38:00;;;;;;;5.40;0.90;;;;;;;2.97;73.94;100007.69;5055720;28;20201;-78
2023/02/24 07:40:27;;;;;;;2.47;0.87;;;;;;;3.00;73.90;99996.19;5047097;28;20260;-79
2023/02/24 07:42:56;;;;;;;2.10;0.97;;;;;;;2.98;73.61;99992.75;5053543;28;20233;-78
2023/02/24 07:45:22;;;;;;;4.20;1.00;;;;;;;3.01;74.31;99984.75;5051812;28;20228;-78
2023/02/24 07:47:50;;;;;;;3.33;0.80;;;;;;;3.03;73.89;99975.88;5056143;28;20217;-78
2023/02/24 07:50:17;;;;;;;2.10;0.63;;;;;;;3.04;74.06;99961.78;5056971;28;20301;-78
2023/02/24 07:52:44;;;;;;;5.73;0.80;;;;;;;3.03;73.42;99965.34;5054928;28;20260;-78
2023/02/24 07:55:11;;;;;;;2.90;0.80;;;;;;;3.06;73.82;99961.69;5054202;28;20198;-78
2023/02/24 07:57:37;;;;;;;5.00;0.87;;;;;;;3.07;73.26;99961.63;5053415;28;20210;-79
2023/02/24 08:00:17;;;;;;;3.97;1.10;;;;;;;3.06;74.07;99953.81;5056082;28;20210;-79
2023/02/24 08:02:44;;;;;;;5.27;1.20;;;;;;;3.09;73.73;99951.03;5054016;28;20276;-78
2023/02/24 08:05:11;;;;;;;5.63;0.90;;;;;;;3.10;73.74;99950.13;5050452;28;20287;-78
2023/02/24 08:07:39;;;;;;;4.37;0.90;;;;;;;3.13;73.42;99953.47;5054178;28;20212;-78
2023/02/24 08:10:12;;;;;;;4.00;0.80;;;;;;;3.16;73.36;99943.75;5055336;28;20202;-78
2023/02/24 08:12:42;;;;;;;5.33;1.13;;;;;;;3.17;73.54;99941.06;5055856;28;20225;-78
2023/02/24 08:15:22;;;;;;;5.57;1.00;;;;;;;3.20;73.89;99932.16;5055145;28;20221;-79
2023/02/24 08:17:49;;;;;;;4.77;0.80;;;;;;;3.22;74.00;99930.34;5054860;28;20225;-78
2023/02/24 08:20:21;;;;;;;5.13;1.00;;;;;;;3.20;73.77;99919.03;5055988;28;20681;-78
2023/02/24 08:22:51;;;;;;;5.10;1.07;;;;;;;3.21;74.32;99918.94;5056762;28;20221;-78
2023/02/24 08:25:21;;;;;;;4.37;0.80;;;;;;;3.21;73.50;99913.69;5050308;28;20236;-78
2023/02/24 08:27:54;;;;;;;9.60;1.40;;;;;;;3.22;73.63;99917.19;5056335;28;20263;-78
2023/02/24 08:30:28;;;;;;;4.37;0.60;;;;;;;3.19;73.76;99902.38;5054176;28;20205;-78
2023/02/24 08:32:56;;;;;;;4.67;0.80;;;;;;;3.23;73.13;99898.66;5052169;28;20259;-78
2023/02/24 08:35:30;;;;;;;3.10;0.60;;;;;;;3.23;73.54;99896.03;5050957;28;20808;-78
2023/02/24 08:38:00;;;;;;;3.13;0.93;;;;;;;3.25;73.23;99895.97;5050291;28;20247;-78
2023/02/24 08:40:36;;;;;;;3.67;0.97;;;;;;;3.25;72.79;99899.44;5050910;28;20212;-79
2023/02/24 08:43:14;;;;;;;4.07;0.63;;;;;;;3.23;72.91;99900.44;5053482;28;20607;-79
2023/02/24 08:45:44;;;;;;;6.90;1.00;;;;;;;3.21;72.82;99887.38;5052893;28;20229;-79
2023/02/24 08:48:24;;;;;;;5.50;0.80;;;;;;;3.23;72.35;99887.28;5056628;28;20202;-79
2023/02/24 08:50:52;;;;;;;3.43;1.03;;;;;;;3.22;72.75;99875.94;5054343;28;20236;-79
2023/02/24 08:53:19;;;;;;;3.00;0.67;;;;;;;3.18;72.72;99870.88;5052935;28;20249;-79
2023/02/24 08:55:50;;;;;;;3.43;1.40;;;;;;;3.21;72.29;99874.22;5051235;28;20198;-79
2023/02/24 08:58:17;;;;;;;6.83;0.97;;;;;;;3.28;72.58;99858.97;5054928;28;20251;-79
2023/02/24 09:00:53;;;;;;;4.93;1.47;;;;;;;3.26;72.90;99864.31;5057094;28;20202;-79
2023/02/24 09:03:28;;;;;;;5.43;1.53;;;;;;;3.30;72.55;99865.88;5052182;28;20898;-80
2023/02/24 09:06:03;;;;;;;3.60;1.43;;;;;;;3.31;72.76;99859.69;5054640;28;20296;-79
2023/02/24 09:08:37;;;;;;;4.27;1.17;;;;;;;3.32;72.61;99864.03;5050392;28;20231;-79
2023/02/24 09:11:06;;;;;;;8.33;1.57;;;;;;;3.32;73.48;99847.41;5054534;28;20205;-79
2023/02/24 09:13:34;;;;;;;4.90;1.77;;;;;;;3.29;73.02;99851.03;5051384;28;20217;-79
2023/02/24 09:16:03;;;;;;;6.23;1.53;;;;;;;3.31;73.29;99846.53;5053342;28;20201;-79
2023/02/24 09:18:37;;;;;;;4.20;1.20;;;;;;;3.32;73.78;99845.63;5052605;28;20580;-80
2023/02/24 09:23:59;;;;;;;4.77;1.20;;;;;;;3.33;73.86;99839.44;5046085;28;20235;-80
2023/02/24 09:26:26;;;;;;;4.80;1.63;;;;;;;3.34;74.92;99841.16;5049508;28;20662;-80
2023/02/24 09:28:56;;;;;;;3.20;1.10;;;;;;;3.34;75.11;99838.50;5048069;28;20796;-80
2023/02/24 09:31:39;;;;;;;7.00;1.43;;;;;;;3.31;75.39;99828.13;5051967;28;20206;-79
2023/02/24 09:34:09;;;;;;;3.40;1.57;;;;;;;3.31;75.62;99830.75;5055265;28;20232;-79
2023/02/24 09:36:43;;;;;;;5.20;1.83;;;;;;;3.29;77.07;99827.34;5052297;28;20217;-79
2023/02/24 09:39:13;;;;;;;10.70;2.13;;;;;;;3.30;77.14;99818.53;5050035;28;20209;-79
2023/02/24 09:41:55;;;;;;;4.60;1.20;;;;;;;3.28;78.34;99814.25;5053226;28;20226;-79
2023/02/24 09:44:27;;;;;;;6.37;1.70;;;;;;;3.26;78.27;99818.72;5053695;28;20648;-79
2023/02/24 09:47:07;;;;;;;3.67;1.97;;;;;;;3.24;78.63;99816.16;5055632;28;20224;-79
2023/02/24 09:49:45;;;;;;;7.50;1.60;;;;;;;3.25;79.06;99799.44;5049356;28;20213;-80
2023/02/24 09:52:16;;;;;;;6.37;1.63;;;;;;;3.24;79.04;99799.53;5047832;28;20230;-79
2023/02/24 09:55:11;;;;;;;9.17;1.83;;;;;;;3.22;79.72;99791.72;5053479;28;20209;-80
2023/02/24 09:57:36;;;;;;;4.93;1.60;;;;;;;3.21;79.81;99784.75;5053321;28;20261;-80
2023/02/24 10:00:24;;;;;;;6.53;1.47;;;;;;;3.21;80.63;99781.28;5050160;28;20244;-79
2023/02/24 10:03:02;;;;;;;7.53;1.60;;;;;;;3.19;81.26;99776.06;5054829;28;20248;-79
2023/02/24 10:05:37;;;;;;;5.03;1.33;;;;;;;3.17;81.17;99777.94;5054767;28;20209;-79
2023/02/24 10:08:07;;;;;;;3.93;2.87;;;;;;;3.14;81.98;99765.75;5048112;28;20228;-79
2023/02/24 10:10:37;;;;;;;10.73;1.90;;;;;;;3.14;82.03;99767.53;5056671;28;20205;-80
2023/02/24 10:13:15;;;;;;;4.43;1.30;;;;;;;3.13;82.26;99761.44;5049159;28;20229;-79
2023/02/24 10:15:58;;;;;;;5.77;1.30;;;;;;;3.15;82.40;99763.97;5056838;28;20208;-79
2023/02/24 10:18:37;;;;;;;4.33;1.53;;;;;;;3.13;82.70;99750.91;5055943;28;20638;-80
2023/02/24 10:21:17;;;;;;;4.73;1.50;;;;;;;3.12;83.17;99735.19;5053886;28;20206;-80
2023/02/24 10:23:58;;;;;;;7.23;1.83;;;;;;;3.11;83.27;99747.50;5058173;28;20210;-80
2023/02/24 10:26:43;;;;;;;5.50;1.33;;;;;;;3.12;83.66;99743.06;5059241;28;20237;-79
2023/02/24 10:29:24;;;;;;;6.33;1.70;;;;;;;3.13;84.03;99735.13;5053504;28;20263;-79
2023/02/24 10:31:57;;;;;;;6.43;1.53;;;;;;;3.14;83.81;99738.59;5058922;28;20291;-79
2023/02/24 10:34:30;;;;;;;8.60;1.70;;;;;;;3.14;84.85;99733.34;5059948;28;20229;-79
2023/02/24 10:36:59;;;;;;;4.80;1.50;;;;;;;3.15;85.29;99721.88;5056055;28;20225;-79
2023/02/24 10:39:29;;;;;;;6.97;2.33;;;;;;;3.10;85.06;99716.84;5053326;28;20293;-80
2023/02/24 10:41:57;;;;;;;7.10;1.97;;;;;;;3.11;85.76;99712.44;5060314;28;20229;-79
2023/02/24 10:44:34;;;;;;;5.63;1.63;;;;;;;3.12;85.76;99715.00;5061703;28;20205;-79
2023/02/24 10:47:10;;;;;;;5.50;1.73;;;;;;;3.13;86.80;99706.19;5053768;28;20787;-79
2023/02/24 10:49:55;;;;;;;8.47;2.57;;;;;;;3.13;86.76;99692.16;5048545;28;20232;-79
2023/02/24 10:52:35;;;;;;;7.23;2.10;;;;;;;3.11;87.42;99700.13;5055836;28;20222;-79
2023/02/24 10:55:07;;;;;;;7.40;2.73;;;;;;;3.10;87.27;99702.84;5049123;28;20616;-79
2023/02/24 10:57:45;;;;;;;8.63;2.10;;;;;;;3.12;87.74;99685.19;5057268;28;20271;-80
2023/02/24 11:00:50;;;;;;;7.40;2.00;;;;;;;3.15;87.57;99685.06;5057395;28;20205;-80
2023/02/24 11:03:34;;;;;;;6.10;1.97;;;;;;;3.16;88.50;99680.66;5057806;28;20230;-79
2023/02/24 11:06:19;;;;;;;12.33;2.43;;;;;;;3.13;88.79;99661.44;5050383;28;20190;-79
2023/02/24 11:09:01;;;;;;;5.07;1.67;;;;;;;3.10;89.50;99653.69;5051527;28;20208;-79
2023/02/24 11:17:13;;;;;;;3.00;1.97;;;;;;;3.08;89.83;99638.91;5057665;28;20224;-79
2023/02/24 11:17:16;;;;;;;6.13;1.67;;;;;;;3.04;90.42;99635.59;5038958;28;20679;-81
2023/02/24 11:19:47;;;;;;;4.60;1.87;;;;;;;3.08;90.32;99637.13;5047469;28;20213;-79
2023/02/24 11:22:20;;;;;;;8.10;1.83;;;;;;;3.13;90.82;99626.41;5041505;28;20232;-81
2023/02/24 11:24:48;;;;;;;6.70;1.83;;;;;;;3.17;91.05;99620.06;5046309;28;20350;-82
2023/02/24 11:27:17;;;;;;;2.80;1.60;;;;;;;3.19;91.26;99605.06;5048365;28;20225;-80
2023/02/24 11:29:57;;;;;;;3.73;1.60;;;;;;;3.20;92.26;99603.28;5049421;28;20209;-81
2023/02/24 11:32:46;;;;;;;4.93;1.83;;;;;;;3.14;91.52;99610.53;5048413;28;20282;-81
2023/02/24 11:35:21;;;;;;;4.00;1.80;;;;;;;3.17;92.12;99590.28;5045481;28;20210;-81
2023/02/24 11:38:01;;;;;;;3.43;2.10;;;;;;;3.15;92.36;99585.09;5052972;28;20296;-80
2023/02/24 11:40:32;;;;;;;3.17;1.77;;;;;;;3.12;92.23;99587.88;5042690;28;20210;-81
2023/02/24 11:43:05;;;;;;;4.70;2.13;;;;;;;3.07;92.36;99571.44;5051475;28;20229;-81
2023/02/24 11:45:36;;;;;;;4.20;2.07;;;;;;;3.06;92.42;99567.13;5045820;28;20237;-81
2023/02/24 11:48:05;;;;;;;3.97;1.97;;;;;;;3.05;92.11;99560.16;5041697;28;20244;-81
2023/02/24 11:50:42;;;;;;;2.77;1.93;;;;;;;3.00;92.79;99559.53;5050944;28;20209;-81
2023/02/24 11:53:18;;;;;;;3.67;2.37;;;;;;;2.96;92.78;99547.47;5045680;28;20247;-80
2023/02/24 11:55:48;;;;;;;6.30;2.53;;;;;;;2.92;92.41;99540.66;5046752;28;20206;-81
2023/02/24 11:58:25;;;;;;;8.40;3.10;;;;;;;2.91;93.07;99541.56;5045610;28;20197;-80
2023/02/24 12:00:58;;;;;;;5.23;2.73;;;;;;;2.90;93.02;99538.09;5050508;28;20201;-80
2023/02/24 12:03:31;;;;;;;3.80;2.77;;;;;;;2.88;93.64;99534.69;5046733;28;20306;-81
2023/02/24 12:06:11;;;;;;;3.63;2.83;;;;;;;2.85;93.69;99523.50;5046302;28;20260;-80